createdAt,value
2023-03-31T00:01:41.358Z,98321.99
2023-03-31T00:07:45.246Z,98316.48
2023-03-31T00:13:47.518Z,98320.38
2023-03-31T00:19:49.280Z,98322.05
2023-03-31T00:25:50.765Z,98321.59
2023-03-31T00:31:53.228Z,98320.52
2023-03-31T00:38:00.599Z,98317.02
2023-03-31T00:44:12.408Z,98312.69
2023-03-31T00:50:18.127Z,98315.22
2023-03-31T00:56:20.155Z,98313.70
2023-03-31T01:02:24.847Z,98316.80
2023-03-31T01:08:27.348Z,98324.91
2023-03-31T01:14:30.343Z,98322.03
2023-03-31T01:20:55.946Z,98320.14
2023-03-31T01:27:10.472Z,98323.56
2023-03-31T01:33:24.794Z,98316.23
2023-03-31T01:40:04.003Z,98311.04
2023-03-31T01:46:30.303Z,98310.38
2023-03-31T01:52:35.840Z,98318.08
2023-03-31T01:58:40.289Z,98322.67
2023-03-31T02:04:52.343Z,98323.95
2023-03-31T02:10:54.619Z,98330.27
2023-03-31T02:16:57.825Z,98323.67
2023-03-31T02:23:00.100Z,98315.73
2023-03-31T02:29:01.796Z,98311.48
2023-03-31T02:35:05.481Z,98315.46
2023-03-31T02:41:07.820Z,98314.35
2023-03-31T02:47:11.372Z,98317.87
2023-03-31T02:54:00.793Z,98315.98
2023-03-31T03:00:25.090Z,98317.89
2023-03-31T03:06:37.098Z,98313.98
2023-03-31T03:12:58.305Z,98316.20
2023-03-31T03:19:02.564Z,98314.59
2023-03-31T03:25:09.881Z,98314.31
2023-03-31T03:31:12.807Z,98314.67
2023-03-31T03:37:14.324Z,98314.69
2023-03-31T03:43:15.796Z,98313.93
2023-03-31T03:49:17.452Z,98306.06
2023-03-31T03:55:19.280Z,98296.11
2023-03-31T04:01:20.941Z,98294.52
2023-03-31T04:07:22.402Z,98287.05
2023-03-31T04:13:23.995Z,98278.58
2023-03-31T04:19:26.760Z,98283.33
2023-03-31T04:25:29.960Z,98274.41
2023-03-31T04:31:31.567Z,98266.29
2023-03-31T04:37:34.038Z,98255.66
2023-03-31T04:43:35.672Z,98256.84
2023-03-31T04:49:37.425Z,98253.08
2023-03-31T04:55:38.967Z,98253.63
2023-03-31T05:01:44.784Z,98255.53
2023-03-31T05:07:46.399Z,98257.95
2023-03-31T05:13:47.916Z,98248.23
2023-03-31T05:19:49.530Z,98251.70
2023-03-31T05:25:51.082Z,98248.17
2023-03-31T05:31:53.401Z,98248.16
2023-03-31T05:37:55.332Z,98242.49
2023-03-31T05:43:56.833Z,98235.14
2023-03-31T05:49:58.894Z,98226.27
2023-03-31T05:56:02.308Z,98226.10
2023-03-31T06:02:04.285Z,98221.13
2023-03-31T06:08:06.955Z,98218.00
2023-03-31T06:14:08.393Z,98211.89
2023-03-31T06:21:26.672Z,98213.98
2023-03-31T06:27:28.191Z,98212.30
